createdAt,value
2023-05-02T00:00:40.380Z,538.00
2023-05-02T00:01:40.410Z,541.00
2023-05-02T00:02:40.511Z,537.00
2023-05-02T00:03:40.415Z,517.00
2023-05-02T00:04:40.444Z,524.00
2023-05-02T00:05:40.339Z,530.00
2023-05-02T00:06:40.426Z,530.00
2023-05-02T00:07:40.326Z,522.00
2023-05-02T00:08:40.399Z,523.00
2023-05-02T00:09:40.335Z,528.00
2023-05-02T00:10:40.379Z,509.00
2023-05-02T00:11:40.343Z,516.00
2023-05-02T00:12:40.344Z,527.00
2023-05-02T00:13:40.345Z,542.00
2023-05-02T00:14:40.323Z,544.00
2023-05-02T00:15:40.330Z,549.00
2023-05-02T00:16:40.362Z,550.00
2023-05-02T00:17:40.384Z,561.00
2023-05-02T00:18:40.329Z,566.00
2023-05-02T00:19:40.341Z,571.00
2023-05-02T00:20:40.329Z,578.00
2023-05-02T00:21:40.319Z,580.00
2023-05-02T00:22:40.306Z,578.00
2023-05-02T00:23:40.310Z,572.00
2023-05-02T00:24:40.306Z,568.00
2023-05-02T00:25:40.320Z,581.00
2023-05-02T00:26:40.299Z,582.00
2023-05-02T00:27:40.286Z,575.00
2023-05-02T00:28:40.315Z,574.00
2023-05-02T00:29:40.284Z,555.00
2023-05-02T00:30:40.296Z,558.00
2023-05-02T00:31:40.377Z,552.00
2023-05-02T00:32:40.324Z,566.00
2023-05-02T00:33:40.280Z,575.00
2023-05-02T00:34:40.267Z,584.00
2023-05-02T00:35:40.275Z,598.00
2023-05-02T00:36:40.278Z,590.00
2023-05-02T00:37:40.282Z,591.00
2023-05-02T00:38:40.258Z,594.00
2023-05-02T00:39:40.260Z,573.00
2023-05-02T00:40:40.270Z,579.00
2023-05-02T00:41:40.297Z,573.00
2023-05-02T00:42:40.275Z,574.00
2023-05-02T00:43:40.247Z,593.00
2023-05-02T00:44:40.278Z,625.00
2023-05-02T00:45:40.253Z,639.00
2023-05-02T00:46:40.280Z,634.00
2023-05-02T00:47:40.282Z,600.00
2023-05-02T00:48:40.272Z,600.00
2023-05-02T00:49:40.277Z,593.00
2023-05-02T00:50:40.261Z,571.00
2023-05-02T00:51:40.294Z,569.00
2023-05-02T00:52:40.268Z,575.00
2023-05-02T00:53:40.247Z,574.00
2023-05-02T00:54:40.264Z,572.00
2023-05-02T00:55:40.272Z,579.00
2023-05-02T00:56:40.260Z,590.00
2023-05-02T00:57:40.241Z,585.00
2023-05-02T00:58:40.246Z,590.00
2023-05-02T00:59:40.235Z,597.00
2023-05-02T01:00:40.221Z,594.00
2023-05-02T01:01:40.275Z,598.00
2023-05-02T01:02:40.260Z,596.00
2023-05-02T01:03:40.303Z,573.00
2023-05-02T01:04:40.220Z,572.00
2023-05-02T01:05:40.207Z,564.00
2023-05-02T01:06:40.300Z,565.00
2023-05-02T01:07:40.201Z,564.00
2023-05-02T01:08:40.206Z,563.00
2023-05-02T01:09:40.217Z,553.00
2023-05-02T01:10:40.213Z,557.00
2023-05-02T01:11:40.225Z,560.00
2023-05-02T01:12:40.205Z,561.00
2023-05-02T01:13:40.199Z,563.00
2023-05-02T01:14:40.213Z,566.00
2023-05-02T01:15:40.239Z,565.00
2023-05-02T01:16:40.357Z,589.00
2023-05-02T01:17:40.236Z,591.00
2023-05-02T01:18:40.172Z,589.00
2023-05-02T01:19:40.183Z,588.00
2023-05-02T01:20:40.184Z,576.00
2023-05-02T01:21:40.241Z,576.00
2023-05-02T01:22:40.173Z,570.00
2023-05-02T01:23:40.155Z,583.00
2023-05-02T01:24:40.174Z,580.00
2023-05-02T01:25:40.158Z,589.00
2023-05-02T01:26:40.174Z,583.00
2023-05-02T01:27:40.164Z,586.00
2023-05-02T01:28:40.156Z,584.00
2023-05-02T01:29:40.144Z,583.00
2023-05-02T01:30:40.132Z,573.00
2023-05-02T01:31:40.270Z,583.00
2023-05-02T01:32:40.195Z,585.00
2023-05-02T01:33:40.148Z,585.00
2023-05-02T01:34:40.134Z,589.00
2023-05-02T01:35:40.141Z,588.00
2023-05-02T01:36:40.124Z,582.00
2023-05-02T01:37:40.123Z,589.00
2023-05-02T01:38:40.123Z,583.00
2023-05-02T01:39:40.125Z,600.00
2023-05-02T01:40:40.131Z,590.00
2023-05-02T01:41:40.136Z,581.00
2023-05-02T01:42:40.118Z,582.00
2023-05-02T01:43:40.099Z,585.00
2023-05-02T01:44:40.099Z,580.00
2023-05-02T01:45:40.110Z,587.00
2023-05-02T01:46:40.210Z,617.00
2023-05-02T01:47:40.142Z,639.00
2023-05-02T01:48:40.079Z,651.00
2023-05-02T01:49:40.087Z,662.00
2023-05-02T01:50:40.085Z,682.00
2023-05-02T01:51:40.065Z,663.00
2023-05-02T01:52:40.058Z,634.00
2023-05-02T01:53:40.104Z,637.00
2023-05-02T01:54:40.079Z,637.00
2023-05-02T01:55:40.081Z,630.00
2023-05-02T01:56:40.069Z,622.00
2023-05-02T01:57:40.078Z,619.00
2023-05-02T01:58:40.065Z,608.00
2023-05-02T01:59:40.075Z,597.00
2023-05-02T02:00:40.086Z,595.00
2023-05-02T02:01:40.212Z,600.00
2023-05-02T02:02:40.073Z,614.00
2023-05-02T02:03:40.158Z,598.00
2023-05-02T02:04:40.323Z,584.00
2023-05-02T02:05:40.065Z,570.00
2023-05-02T02:06:40.117Z,577.00
2023-05-02T02:07:40.081Z,588.00
2023-05-02T02:08:40.104Z,577.00
2023-05-02T02:09:40.100Z,584.00
2023-05-02T02:10:40.065Z,581.00
2023-05-02T02:11:40.057Z,589.00
2023-05-02T02:12:40.076Z,584.00
2023-05-02T02:13:40.092Z,574.00
2023-05-02T02:14:40.096Z,562.00
2023-05-02T02:15:40.075Z,551.00
2023-05-02T02:16:40.129Z,564.00
2023-05-02T02:17:40.108Z,567.00
2023-05-02T02:18:40.087Z,562.00
2023-05-02T02:19:40.106Z,549.00
2023-05-02T02:20:40.091Z,560.00
2023-05-02T02:21:40.093Z,557.00
2023-05-02T02:22:40.091Z,542.00
2023-05-02T02:23:40.096Z,547.00
2023-05-02T02:24:40.080Z,555.00
2023-05-02T02:25:40.085Z,539.00
2023-05-02T02:26:40.093Z,545.00
2023-05-02T02:27:40.088Z,550.00
2023-05-02T02:28:40.096Z,546.00
2023-05-02T02:29:40.111Z,553.00
2023-05-02T02:30:40.199Z,567.00
2023-05-02T02:31:40.114Z,560.00
2023-05-02T02:32:40.144Z,556.00
2023-05-02T02:33:40.185Z,541.00
2023-05-02T02:34:40.112Z,541.00
2023-05-02T02:35:40.086Z,550.00
2023-05-02T02:36:40.113Z,581.00
2023-05-02T02:37:40.099Z,602.00
2023-05-02T02:38:40.084Z,618.00
2023-05-02T02:39:40.084Z,620.00
2023-05-02T02:40:40.085Z,610.00
2023-05-02T02:41:40.077Z,594.00
2023-05-02T02:42:40.129Z,571.00
2023-05-02T02:43:40.084Z,571.00
2023-05-02T02:44:40.086Z,564.00
2023-05-02T02:45:40.096Z,564.00
2023-05-02T02:46:40.160Z,564.00
2023-05-02T02:47:40.140Z,557.00
2023-05-02T02:48:40.107Z,547.00
2023-05-02T02:49:40.093Z,561.00
2023-05-02T02:50:40.103Z,556.00
2023-05-02T02:51:40.114Z,565.00
2023-05-02T02:52:40.078Z,565.00
2023-05-02T02:53:40.156Z,565.00
2023-05-02T02:54:40.093Z,563.00
2023-05-02T02:55:40.103Z,561.00
2023-05-02T02:56:40.096Z,550.00
2023-05-02T02:57:40.068Z,555.00
2023-05-02T02:58:40.085Z,544.00
2023-05-02T02:59:40.092Z,533.00
2023-05-02T03:00:40.089Z,534.00
2023-05-02T03:01:40.166Z,544.00
2023-05-02T03:02:40.103Z,558.00
2023-05-02T03:03:40.092Z,564.00
2023-05-02T03:04:40.106Z,567.00
2023-05-02T03:05:40.066Z,550.00
2023-05-02T03:06:40.110Z,557.00
2023-05-02T03:07:40.100Z,547.00
2023-05-02T03:08:40.085Z,544.00
2023-05-02T03:09:40.135Z,551.00
2023-05-02T03:10:40.073Z,551.00
2023-05-02T03:11:40.104Z,546.00
2023-05-02T03:12:40.197Z,562.00
2023-05-02T03:13:40.067Z,568.00
2023-05-02T03:14:40.129Z,574.00
2023-05-02T03:15:40.112Z,569.00
2023-05-02T03:16:40.198Z,570.00
2023-05-02T03:17:40.134Z,577.00
2023-05-02T03:18:40.082Z,579.00
2023-05-02T03:19:40.112Z,590.00
2023-05-02T03:20:40.099Z,602.00
2023-05-02T03:21:40.102Z,598.00
2023-05-02T03:22:40.100Z,603.00
2023-05-02T03:23:40.092Z,581.00
2023-05-02T03:24:40.112Z,574.00
2023-05-02T03:25:40.131Z,576.00
2023-05-02T03:26:40.116Z,553.00
2023-05-02T03:27:40.105Z,552.00
2023-05-02T03:28:40.105Z,556.00
2023-05-02T03:29:40.088Z,551.00
2023-05-02T03:30:40.096Z,545.00
2023-05-02T03:31:40.147Z,546.00
2023-05-02T03:32:40.123Z,553.00
2023-05-02T03:33:40.109Z,550.00
2023-05-02T03:34:40.130Z,556.00
2023-05-02T03:35:40.118Z,557.00
2023-05-02T03:36:40.127Z,554.00
2023-05-02T03:37:40.134Z,555.00
2023-05-02T03:38:40.132Z,552.00
2023-05-02T03:39:40.146Z,559.00
2023-05-02T03:40:40.168Z,552.00
2023-05-02T03:41:40.160Z,557.00
2023-05-02T03:42:40.153Z,564.00
2023-05-02T03:43:40.149Z,568.00
2023-05-02T03:44:40.175Z,563.00
2023-05-02T03:45:40.169Z,573.00
2023-05-02T03:46:40.211Z,581.00
2023-05-02T03:47:40.245Z,599.00
2023-05-02T03:48:40.192Z,600.00
2023-05-02T03:49:40.191Z,600.00
2023-05-02T03:50:40.184Z,598.00
2023-05-02T03:51:40.193Z,594.00
2023-05-02T03:52:40.194Z,599.00
2023-05-02T03:53:40.193Z,610.00
2023-05-02T03:54:40.218Z,616.00
2023-05-02T03:55:40.198Z,615.00
2023-05-02T03:56:42.654Z,614.00
2023-05-02T03:57:40.390Z,624.00
2023-05-02T03:58:40.395Z,625.00
2023-05-02T03:59:40.386Z,639.00
2023-05-02T04:00:40.422Z,632.00
2023-05-02T04:01:40.464Z,628.00
2023-05-02T04:02:40.606Z,627.00
2023-05-02T04:03:40.557Z,628.00
2023-05-02T04:04:40.489Z,630.00
2023-05-02T04:05:40.425Z,626.00
2023-05-02T04:06:40.541Z,636.00
2023-05-02T04:07:40.467Z,638.00
2023-05-02T04:08:40.467Z,639.00
2023-05-02T04:09:40.470Z,646.00
2023-05-02T04:10:40.479Z,649.00
2023-05-02T04:11:40.476Z,646.00
2023-05-02T04:12:40.503Z,647.00
2023-05-02T04:13:40.491Z,650.00
2023-05-02T04:14:40.511Z,643.00
2023-05-02T04:15:40.481Z,638.00
2023-05-02T04:16:40.532Z,642.00
2023-05-02T04:17:40.541Z,652.00
2023-05-02T04:18:40.527Z,640.00
2023-05-02T04:19:40.530Z,624.00
2023-05-02T04:20:40.534Z,641.00
2023-05-02T04:21:40.543Z,638.00
2023-05-02T04:22:40.541Z,654.00
2023-05-02T04:23:40.554Z,658.00
2023-05-02T04:24:40.584Z,645.00
2023-05-02T04:25:40.562Z,638.00
2023-05-02T04:26:40.568Z,637.00
2023-05-02T04:27:40.564Z,639.00
2023-05-02T04:28:40.585Z,645.00
2023-05-02T04:29:40.597Z,631.00
2023-05-02T04:30:40.634Z,630.00
2023-05-02T04:31:40.590Z,637.00
2023-05-02T04:32:40.625Z,623.00
2023-05-02T04:33:40.610Z,614.00
2023-05-02T04:34:40.613Z,614.00
2023-05-02T04:35:40.623Z,624.00
2023-05-02T04:36:40.621Z,619.00
2023-05-02T04:37:40.634Z,617.00
2023-05-02T04:38:40.651Z,619.00
2023-05-02T04:39:40.661Z,611.00
2023-05-02T04:40:40.639Z,605.00
2023-05-02T04:41:40.656Z,596.00
2023-05-02T04:42:40.650Z,600.00
2023-05-02T04:43:40.661Z,602.00
2023-05-02T04:44:40.673Z,582.00
2023-05-02T04:45:40.663Z,583.00
2023-05-02T04:46:40.705Z,584.00
2023-05-02T04:47:40.713Z,585.00
2023-05-02T04:48:40.678Z,592.00
2023-05-02T04:49:40.672Z,609.00
2023-05-02T04:50:40.667Z,625.00
2023-05-02T04:51:40.671Z,641.00
2023-05-02T04:52:40.697Z,652.00
2023-05-02T04:53:40.689Z,659.00
2023-05-02T04:54:40.700Z,646.00
2023-05-02T04:55:40.701Z,636.00
2023-05-02T04:56:40.703Z,644.00
2023-05-02T04:57:40.687Z,649.00
2023-05-02T04:58:40.695Z,652.00
2023-05-02T04:59:40.715Z,638.00
2023-05-02T05:00:40.751Z,649.00
2023-05-02T05:01:40.809Z,677.00
2023-05-02T05:02:40.796Z,681.00
2023-05-02T05:03:40.818Z,664.00
2023-05-02T05:04:40.732Z,658.00
2023-05-02T05:05:40.850Z,680.00
2023-05-02T05:06:40.777Z,733.00
2023-05-02T05:07:40.726Z,781.00
2023-05-02T05:08:40.733Z,770.00
2023-05-02T05:09:40.734Z,759.00
2023-05-02T05:10:40.761Z,771.00
2023-05-02T05:11:40.700Z,783.00
2023-05-02T05:12:40.706Z,718.00
2023-05-02T05:13:40.708Z,789.00
2023-05-02T05:14:40.756Z,872.00
2023-05-02T05:15:40.712Z,903.00
2023-05-02T05:16:40.765Z,976.00
2023-05-02T05:17:40.788Z,1091.00
2023-05-02T05:18:40.861Z,1147.00
2023-05-02T05:19:40.718Z,1192.00
2023-05-02T05:20:40.707Z,1170.00
2023-05-02T05:21:40.716Z,1248.00
2023-05-02T05:22:40.742Z,1288.00
2023-05-02T05:23:40.807Z,1348.00
2023-05-02T05:24:40.789Z,1365.00
2023-05-02T05:25:41.248Z,1363.00
2023-05-02T05:26:40.872Z,1319.00
2023-05-02T05:27:40.906Z,1285.00
2023-05-02T05:28:40.904Z,1232.00
2023-05-02T05:29:40.931Z,1254.00
2023-05-02T05:30:40.902Z,1528.00
2023-05-02T05:31:40.997Z,1513.00
2023-05-02T05:32:41.034Z,1510.00
2023-05-02T05:33:40.989Z,1520.00
2023-05-02T05:34:40.985Z,1488.00
2023-05-02T05:35:41.025Z,1530.00
2023-05-02T05:36:41.086Z,1620.00
2023-05-02T05:37:41.120Z,1597.00
2023-05-02T05:38:41.187Z,1649.00
2023-05-02T05:39:41.259Z,1640.00
2023-05-02T05:40:41.324Z,1693.00
2023-05-02T05:41:41.382Z,1685.00
2023-05-02T05:42:41.412Z,1723.00
2023-05-02T05:43:41.470Z,1813.00
2023-05-02T05:44:41.530Z,1873.00
2023-05-02T05:45:41.604Z,1922.00
2023-05-02T05:46:41.687Z,1982.00
2023-05-02T05:47:41.698Z,2002.00
2023-05-02T05:48:41.692Z,2023.00
2023-05-02T05:49:42.121Z,2040.00
2023-05-02T05:50:41.785Z,2075.00
2023-05-02T05:51:41.806Z,2069.00
2023-05-02T05:52:41.824Z,2095.00
2023-05-02T05:53:41.839Z,2066.00
2023-05-02T05:54:41.881Z,2055.00
2023-05-02T05:55:42.446Z,2056.00
2023-05-02T05:56:41.966Z,2085.00
2023-05-02T05:57:41.963Z,2115.00
2023-05-02T05:58:42.000Z,2144.00
2023-05-02T05:59:41.987Z,2162.00
2023-05-02T06:00:42.016Z,2173.00
2023-05-02T06:01:42.042Z,2188.00
2023-05-02T06:02:42.128Z,2187.00
2023-05-02T06:03:42.150Z,2206.00
2023-05-02T06:04:42.145Z,2207.00
2023-05-02T06:05:42.096Z,2211.00
2023-05-02T06:06:42.197Z,2166.00
2023-05-02T06:07:42.135Z,2154.00
2023-05-02T06:08:42.143Z,2154.00
2023-05-02T06:09:42.176Z,2198.00
2023-05-02T06:10:42.191Z,2198.00
2023-05-02T06:11:42.239Z,2230.00
2023-05-02T06:12:42.641Z,2237.00
2023-05-02T06:13:42.236Z,2228.00
2023-05-02T06:14:42.292Z,2134.00
2023-05-02T06:15:42.320Z,2149.00
2023-05-02T06:16:42.629Z,2166.00
2023-05-02T06:17:42.649Z,2173.00
2023-05-02T06:18:42.351Z,2182.00
2023-05-02T06:19:42.374Z,2199.00
2023-05-02T06:20:42.373Z,2190.00
2023-05-02T06:21:42.413Z,2108.00
2023-05-02T06:22:42.443Z,2123.00
2023-05-02T06:23:42.469Z,2151.00
2023-05-02T06:24:42.479Z,2153.00
2023-05-02T06:25:42.551Z,2150.00
2023-05-02T06:26:42.514Z,2142.00
2023-05-02T06:27:42.532Z,2098.00
2023-05-02T06:28:42.565Z,1950.00
2023-05-02T06:29:42.609Z,2106.00
2023-05-02T06:30:42.597Z,1920.00
2023-05-02T06:31:42.673Z,1994.00
2023-05-02T06:32:43.168Z,1931.00
2023-05-02T06:33:42.699Z,1984.00
2023-05-02T06:34:43.119Z,2021.00
2023-05-02T06:35:42.700Z,2435.00
2023-05-02T06:36:42.748Z,2894.00
2023-05-02T06:37:42.827Z,2533.00
2023-05-02T06:38:42.772Z,2289.00
2023-05-02T06:39:43.162Z,2082.00
2023-05-02T06:40:42.832Z,1959.00
2023-05-02T06:41:42.895Z,1831.00
2023-05-02T06:42:42.944Z,1824.00
2023-05-02T06:43:42.941Z,1792.00
2023-05-02T06:44:43.121Z,1766.00
2023-05-02T06:45:43.047Z,1788.00
2023-05-02T06:46:43.143Z,1774.00
2023-05-02T06:47:43.665Z,1795.00
2023-05-02T06:48:43.193Z,1788.00
2023-05-02T06:49:43.258Z,1800.00
2023-05-02T06:50:43.299Z,1795.00
2023-05-02T06:51:43.372Z,1723.00
2023-05-02T06:52:43.449Z,1687.00
2023-05-02T06:53:43.506Z,1615.00
2023-05-02T06:54:43.639Z,1627.00
2023-05-02T06:55:43.633Z,1654.00
2023-05-02T06:56:43.683Z,1636.00
2023-05-02T06:57:43.729Z,1616.00
2023-05-02T06:58:43.802Z,1567.00
2023-05-02T06:59:44.127Z,1572.00
2023-05-02T07:00:43.932Z,1548.00
2023-05-02T07:01:43.936Z,1562.00
2023-05-02T07:02:44.133Z,1514.00
2023-05-02T07:03:43.937Z,1529.00
2023-05-02T07:04:44.064Z,1546.00
2023-05-02T07:05:44.050Z,1541.00
2023-05-02T07:06:44.105Z,1529.00
2023-05-02T07:07:44.183Z,1524.00
2023-05-02T07:08:44.220Z,1534.00
2023-05-02T07:09:44.273Z,1527.00
2023-05-02T07:10:44.386Z,1509.00
2023-05-02T07:11:44.386Z,1544.00
2023-05-02T07:12:44.624Z,1516.00
2023-05-02T07:13:44.533Z,1468.00
2023-05-02T07:14:44.638Z,1474.00
2023-05-02T07:15:44.677Z,1470.00
2023-05-02T07:16:44.722Z,1453.00
2023-05-02T07:17:44.842Z,1439.00
2023-05-02T07:18:45.009Z,1393.00
2023-05-02T07:19:45.775Z,1358.00
2023-05-02T07:20:44.952Z,1329.00
2023-05-02T07:21:44.998Z,1404.00
2023-05-02T07:22:45.160Z,1448.00
2023-05-02T07:23:45.105Z,1415.00
2023-05-02T07:24:45.633Z,1412.00
2023-05-02T07:25:45.225Z,1468.00
2023-05-02T07:26:45.271Z,1472.00
2023-05-02T07:27:45.645Z,1522.00
2023-05-02T07:28:45.356Z,1610.00
2023-05-02T07:29:45.410Z,1582.00
2023-05-02T07:30:45.560Z,1642.00
2023-05-02T07:31:45.574Z,1715.00
2023-05-02T07:32:45.580Z,1737.00
2023-05-02T07:33:45.633Z,1697.00
2023-05-02T07:34:45.657Z,1697.00
2023-05-02T07:35:45.697Z,1697.00
2023-05-02T07:36:45.746Z,1697.00
2023-05-02T07:37:45.794Z,1741.00
2023-05-02T07:38:45.831Z,1804.00
2023-05-02T07:39:46.135Z,1793.00
2023-05-02T07:40:45.845Z,1809.00
2023-05-02T07:41:45.866Z,1806.00
2023-05-02T07:42:45.899Z,1848.00
2023-05-02T07:43:45.920Z,1833.00
2023-05-02T07:44:45.931Z,1846.00
2023-05-02T07:45:46.000Z,1892.00
2023-05-02T07:46:46.064Z,1878.00
2023-05-02T07:47:46.337Z,1950.00
2023-05-02T07:48:45.949Z,1952.00
2023-05-02T07:49:45.962Z,2005.00
2023-05-02T07:50:45.949Z,2051.00
2023-05-02T07:51:45.930Z,2075.00
2023-05-02T07:52:45.946Z,1987.00
2023-05-02T07:53:45.963Z,1942.00
2023-05-02T07:54:45.930Z,1873.00
2023-05-02T07:55:45.935Z,1773.00
2023-05-02T07:56:45.958Z,1818.00
2023-05-02T07:57:45.945Z,1832.00
2023-05-02T07:58:46.000Z,1830.00
2023-05-02T07:59:46.021Z,1871.00
2023-05-02T08:00:45.999Z,1893.00
2023-05-02T08:01:46.019Z,1897.00
2023-05-02T08:02:46.126Z,1876.00
2023-05-02T08:03:46.229Z,1916.00
2023-05-02T08:04:46.126Z,1881.00
2023-05-02T08:05:46.157Z,1895.00
2023-05-02T08:06:46.285Z,1941.00
2023-05-02T08:07:46.286Z,1980.00
2023-05-02T08:08:46.336Z,1977.00
2023-05-02T08:09:46.410Z,1970.00
2023-05-02T08:10:46.670Z,1975.00
2023-05-02T08:11:46.525Z,1857.00
2023-05-02T08:12:46.650Z,1749.00
2023-05-02T08:13:46.539Z,1682.00
2023-05-02T08:14:46.569Z,1668.00
2023-05-02T08:15:46.666Z,1642.00
2023-05-02T08:16:46.827Z,1663.00
2023-05-02T08:17:46.659Z,1602.00
2023-05-02T08:18:46.585Z,1707.00
2023-05-02T08:19:46.625Z,1666.00
2023-05-02T08:20:46.723Z,1724.00
2023-05-02T08:21:46.579Z,1717.00
2023-05-02T08:22:46.690Z,1712.00
2023-05-02T08:23:46.597Z,1752.00
2023-05-02T08:24:46.588Z,1825.00
2023-05-02T08:25:46.586Z,1833.00
2023-05-02T08:26:46.608Z,1858.00
2023-05-02T08:27:46.623Z,1892.00
2023-05-02T08:28:46.646Z,1941.00
2023-05-02T08:29:46.693Z,1960.00
2023-05-02T08:30:46.728Z,1921.00
2023-05-02T08:31:46.819Z,2003.00
2023-05-02T08:32:46.821Z,2158.00
2023-05-02T08:33:46.868Z,2184.00
2023-05-02T08:34:46.974Z,2185.00
2023-05-02T08:35:47.004Z,2219.00
2023-05-02T08:36:47.069Z,2215.00
2023-05-02T08:37:47.133Z,2152.00
2023-05-02T08:38:47.224Z,2185.00
2023-05-02T08:39:47.298Z,2220.00
2023-05-02T08:40:47.310Z,2307.00
2023-05-02T08:41:47.378Z,2355.00
2023-05-02T08:42:47.669Z,2379.00
2023-05-02T08:43:47.522Z,2397.00
2023-05-02T08:44:47.547Z,2399.00
2023-05-02T08:45:47.584Z,2368.00
2023-05-02T08:46:47.738Z,2360.00
2023-05-02T08:47:48.194Z,2398.00
2023-05-02T08:48:47.783Z,2403.00
2023-05-02T08:49:47.816Z,2392.00
2023-05-02T08:50:48.221Z,2388.00
2023-05-02T08:51:47.966Z,2388.00
2023-05-02T08:52:47.992Z,2382.00
2023-05-02T08:53:48.044Z,2378.00
2023-05-02T08:54:48.107Z,2373.00
2023-05-02T08:55:48.183Z,2340.00
2023-05-02T08:56:48.253Z,2340.00
2023-05-02T08:57:48.276Z,2321.00
2023-05-02T08:58:48.345Z,2287.00
2023-05-02T08:59:48.415Z,2256.00
2023-05-02T09:00:48.545Z,2259.00
2023-05-02T09:01:48.686Z,2239.00
2023-05-02T09:02:48.619Z,2209.00
2023-05-02T09:03:48.709Z,2211.00
2023-05-02T09:04:48.795Z,2216.00
2023-05-02T09:05:48.779Z,2228.00
2023-05-02T09:06:48.909Z,2222.00
2023-05-02T09:07:48.909Z,2173.00
2023-05-02T09:08:48.985Z,2147.00
2023-05-02T09:09:49.054Z,2161.00
2023-05-02T09:10:49.258Z,2179.00
2023-05-02T09:11:49.172Z,2129.00
2023-05-02T09:12:49.260Z,2037.00
2023-05-02T09:13:49.285Z,2080.00
2023-05-02T09:14:49.344Z,2025.00
2023-05-02T09:15:49.420Z,2053.00
2023-05-02T09:16:49.499Z,2059.00
2023-05-02T09:17:49.594Z,2039.00
2023-05-02T09:18:49.592Z,2039.00
2023-05-02T09:19:49.656Z,2015.00
2023-05-02T09:20:49.717Z,2009.00
2023-05-02T09:21:49.792Z,2031.00
2023-05-02T09:22:50.183Z,2015.00
2023-05-02T09:23:49.930Z,2026.00
2023-05-02T09:24:49.982Z,1988.00
2023-05-02T09:25:50.025Z,1698.00
2023-05-02T09:26:50.063Z,1552.00
2023-05-02T09:27:50.215Z,1504.00
2023-05-02T09:28:50.092Z,1473.00
2023-05-02T09:29:50.097Z,1494.00
2023-05-02T09:30:50.274Z,1598.00
2023-05-02T09:31:56.291Z,1606.00
2023-05-02T09:32:51.277Z,1609.00
2023-05-02T09:33:50.068Z,1562.00
2023-05-02T09:34:50.078Z,1560.00
2023-05-02T09:35:50.066Z,1392.00
2023-05-02T09:36:50.038Z,1071.00
2023-05-02T09:37:50.062Z,904.00
2023-05-02T09:38:50.084Z,774.00
2023-05-02T09:39:50.024Z,694.00
2023-05-02T09:40:50.006Z,610.00
2023-05-02T09:41:50.022Z,579.00
2023-05-02T09:42:50.034Z,557.00
2023-05-02T09:43:49.992Z,520.00
2023-05-02T09:44:50.001Z,515.00
2023-05-02T09:45:50.068Z,531.00
2023-05-02T09:46:49.979Z,511.00
2023-05-02T09:47:50.061Z,520.00
2023-05-02T09:48:50.048Z,518.00
2023-05-02T09:49:50.083Z,511.00
2023-05-02T09:50:50.134Z,500.00
2023-05-02T09:51:50.184Z,502.00
2023-05-02T09:52:50.224Z,499.00
2023-05-02T09:53:50.286Z,503.00
2023-05-02T09:54:50.312Z,503.00
2023-05-02T09:55:50.367Z,550.00
2023-05-02T09:56:50.386Z,648.00
2023-05-02T09:57:50.453Z,792.00
2023-05-02T09:58:50.486Z,1000.00
2023-05-02T09:59:50.525Z,1102.00
2023-05-02T10:00:50.561Z,1262.00
2023-05-02T10:01:50.605Z,1306.00
2023-05-02T10:02:50.621Z,1378.00
2023-05-02T10:03:50.636Z,1395.00
2023-05-02T10:04:50.627Z,1415.00
2023-05-02T10:05:50.724Z,1389.00
2023-05-02T10:06:50.768Z,1405.00
2023-05-02T10:07:51.213Z,1477.00
2023-05-02T10:08:50.623Z,1512.00
2023-05-02T10:09:50.600Z,1560.00
2023-05-02T10:10:51.210Z,1563.00
2023-05-02T10:11:50.623Z,1604.00
2023-05-02T10:12:50.629Z,1377.00
2023-05-02T10:13:50.647Z,1307.00
2023-05-02T10:14:50.668Z,1197.00
2023-05-02T10:15:50.719Z,1220.00
2023-05-02T10:16:50.770Z,1208.00
2023-05-02T10:17:50.903Z,1365.00
2023-05-02T10:18:50.858Z,1431.00
2023-05-02T10:19:50.915Z,1531.00
2023-05-02T10:20:50.951Z,1503.00
2023-05-02T10:21:50.971Z,1248.00
2023-05-02T10:22:51.021Z,1064.00
2023-05-02T10:23:50.998Z,1238.00
2023-05-02T10:24:50.979Z,1097.00
2023-05-02T10:25:51.051Z,894.00
2023-05-02T10:26:51.043Z,654.00
2023-05-02T10:27:51.075Z,552.00
2023-05-02T10:28:51.187Z,500.00
2023-05-02T10:29:51.197Z,442.00
2023-05-02T10:30:51.242Z,525.00
2023-05-02T10:31:51.243Z,546.00
2023-05-02T10:32:51.323Z,595.00
2023-05-02T10:33:51.723Z,607.00
2023-05-02T10:34:51.384Z,719.00
2023-05-02T10:35:51.705Z,936.00
2023-05-02T10:36:51.481Z,1035.00
2023-05-02T10:37:51.525Z,1138.00
2023-05-02T10:38:51.576Z,1212.00
2023-05-02T10:39:51.581Z,1183.00
2023-05-02T10:40:51.598Z,878.00
2023-05-02T10:41:51.646Z,929.00
2023-05-02T10:42:51.629Z,773.00
2023-05-02T10:43:51.666Z,712.00
2023-05-02T10:44:51.680Z,709.00
2023-05-02T10:45:51.701Z,643.00
2023-05-02T10:46:51.777Z,631.00
2023-05-02T10:47:51.811Z,742.00
2023-05-02T10:48:51.802Z,645.00
2023-05-02T10:49:51.810Z,617.00
2023-05-02T10:50:51.879Z,603.00
2023-05-02T10:51:51.884Z,540.00
2023-05-02T10:52:51.914Z,536.00
2023-05-02T10:53:51.964Z,602.00
2023-05-02T10:54:52.005Z,584.00
2023-05-02T10:55:52.026Z,610.00
2023-05-02T10:56:52.041Z,678.00
2023-05-02T10:57:52.083Z,657.00
2023-05-02T10:58:52.116Z,768.00
2023-05-02T10:59:52.126Z,563.00
2023-05-02T11:00:52.267Z,509.00
2023-05-02T11:01:52.211Z,551.00
2023-05-02T11:02:52.325Z,688.00
2023-05-02T11:03:52.722Z,888.00
2023-05-02T11:04:52.325Z,1062.00
2023-05-02T11:05:52.374Z,1209.00
2023-05-02T11:06:52.386Z,1300.00
2023-05-02T11:07:52.407Z,1398.00
2023-05-02T11:08:52.422Z,1537.00
2023-05-02T11:09:52.416Z,1621.00
2023-05-02T11:10:52.725Z,1732.00
2023-05-02T11:11:52.457Z,1803.00
2023-05-02T11:12:52.488Z,1832.00
2023-05-02T11:13:52.476Z,1684.00
2023-05-02T11:14:52.455Z,1624.00
2023-05-02T11:15:52.498Z,1644.00
2023-05-02T11:16:52.500Z,1749.00
2023-05-02T11:17:52.549Z,1667.00
2023-05-02T11:18:52.482Z,1447.00
2023-05-02T11:19:52.470Z,1180.00
2023-05-02T11:20:52.479Z,879.00
2023-05-02T11:21:52.500Z,723.00
2023-05-02T11:22:52.549Z,628.00
2023-05-02T11:23:52.574Z,604.00
2023-05-02T11:24:52.584Z,555.00
2023-05-02T11:25:52.666Z,499.00
2023-05-02T11:26:52.721Z,501.00
2023-05-02T11:27:52.740Z,498.00
2023-05-02T11:28:52.812Z,479.00
2023-05-02T11:29:52.889Z,487.00
2023-05-02T11:30:52.925Z,499.00
2023-05-02T11:31:53.034Z,530.00
2023-05-02T11:32:53.079Z,487.00
2023-05-02T11:33:53.103Z,501.00
2023-05-02T11:34:53.142Z,478.00
2023-05-02T11:35:53.156Z,539.00
2023-05-02T11:36:53.208Z,487.00
2023-05-02T11:37:53.239Z,472.00
2023-05-02T11:38:53.224Z,470.00
2023-05-02T11:39:53.253Z,400.00
2023-05-02T11:40:53.254Z,400.00
2023-05-02T11:41:53.268Z,400.00
2023-05-02T11:42:53.345Z,442.00
2023-05-02T11:43:53.392Z,551.00
2023-05-02T11:44:53.394Z,582.00
2023-05-02T11:45:53.466Z,628.00
2023-05-02T11:46:53.455Z,707.00
2023-05-02T11:47:53.508Z,868.00
2023-05-02T11:48:53.528Z,1778.00
2023-05-02T11:49:53.525Z,2695.00
2023-05-02T11:50:53.570Z,2848.00
2023-05-02T11:51:53.559Z,2777.00
2023-05-02T11:52:53.583Z,2697.00
2023-05-02T11:53:53.609Z,2614.00
2023-05-02T11:54:53.593Z,2538.00
2023-05-02T11:55:53.616Z,2476.00
2023-05-02T11:56:53.590Z,2346.00
2023-05-02T11:57:53.624Z,2363.00
2023-05-02T11:58:53.665Z,2388.00
2023-05-02T11:59:53.730Z,2518.00
2023-05-02T12:00:53.793Z,2549.00
2023-05-02T12:01:53.854Z,2597.00
2023-05-02T12:02:53.988Z,2620.00
2023-05-02T12:03:54.091Z,2711.00
2023-05-02T12:04:54.040Z,2724.00
2023-05-02T12:05:54.217Z,2777.00
2023-05-02T12:06:54.149Z,2848.00
2023-05-02T12:07:54.190Z,2965.00
2023-05-02T12:08:54.262Z,2958.00
2023-05-02T12:09:54.280Z,3051.00
2023-05-02T12:10:54.324Z,3044.00
2023-05-02T12:11:54.369Z,2679.00
2023-05-02T12:12:54.427Z,2408.00
2023-05-02T12:13:54.485Z,2504.00
2023-05-02T12:14:54.504Z,2901.00
2023-05-02T12:15:54.730Z,3073.00
2023-05-02T12:16:54.574Z,2987.00
2023-05-02T12:17:54.751Z,3061.00